sensor_id;sensor_type;location;lat;lon;timestamp;pressure;altitude;pressure_sealevel;temperature;humidity
9853;BME280;4965;43.238;27.864;2022-10-22T00:01:01;101268.88;;;7.85;100.00
9853;BME280;4965;43.238;27.864;2022-10-22T00:03:27;101272.13;;;7.90;100.00
9853;BME280;4965;43.238;27.864;2022-10-22T00:05:54;101240.78;;;7.70;100.00
9853;BME280;4965;43.238;27.864;2022-10-22T00:08:21;101268.13;;;7.83;100.00
9853;BME280;4965;43.238;27.864;2022-10-22T00:10:48;101254.31;;;7.79;100.00
9853;BME280;4965;43.238;27.864;2022-10-22T00:13:15;101268.13;;;7.83;100.00
9853;BME280;4965;43.238;27.864;2022-10-22T00:15:42;101251.41;;;7.84;100.00
9853;BME280;4965;43.238;27.864;2022-10-22T00:18:10;101246.22;;;7.82;100.00
9853;BME280;4965;43.238;27.864;2022-10-22T00:20:37;101252.09;;;7.87;100.00
9853;BME280;4965;43.238;27.864;2022-10-22T00:23:04;101243.09;;;7.91;100.00
9853;BME280;4965;43.238;27.864;2022-10-22T00:25:33;101170.13;;;7.32;100.00
9853;BME280;4965;43.238;27.864;2022-10-22T00:28:00;101230.84;;;7.90;100.00
9853;BME280;4965;43.238;27.864;2022-10-22T00:30:27;101237.81;;;7.91;100.00
9853;BME280;4965;43.238;27.864;2022-10-22T00:32:54;101211.34;;;7.79;100.00
9853;BME280;4965;43.238;27.864;2022-10-22T00:35:22;101227.44;;;7.88;100.00
9853;BME280;4965;43.238;27.864;2022-10-22T00:37:49;101208.13;;;7.74;100.00
9853;BME280;4965;43.238;27.864;2022-10-22T00:40:16;101214.81;;;7.79;100.00
9853;BME280;4965;43.238;27.864;2022-10-22T00:42:43;101205.28;;;7.77;100.00
9853;BME280;4965;43.238;27.864;2022-10-22T00:45:19;101210.22;;;7.83;100.00
9853;BME280;4965;43.238;27.864;2022-10-22T00:47:50;101198.19;;;7.79;100.00
9853;BME280;4965;43.238;27.864;2022-10-22T00:50:25;101188.09;;;7.71;100.00
9853;BME280;4965;43.238;27.864;2022-10-22T00:52:54;101200.13;;;7.75;100.00
9853;BME280;4965;43.238;27.864;2022-10-22T00:55:22;101189.03;;;7.70;100.00
9853;BME280;4965;43.238;27.864;2022-10-22T00:57:50;101187.06;;;7.74;100.00
9853;BME280;4965;43.238;27.864;2022-10-22T01:00:18;101199.88;;;7.80;100.00
9853;BME280;4965;43.238;27.864;2022-10-22T01:02:46;101188.00;;;7.73;100.00
9853;BME280;4965;43.238;27.864;2022-10-22T01:05:13;101171.94;;;7.77;100.00
9853;BME280;4965;43.238;27.864;2022-10-22T01:07:45;101168.19;;;7.81;100.00
9853;BME280;4965;43.238;27.864;2022-10-22T01:10:21;101187.38;;;7.99;100.00
9853;BME280;4965;43.238;27.864;2022-10-22T01:13:01;101183.22;;;7.95;100.00
9853;BME280;4965;43.238;27.864;2022-10-22T01:15:40;101176.88;;;7.83;100.00
9853;BME280;4965;43.238;27.864;2022-10-22T01:18:14;101173.72;;;7.77;100.00
9853;BME280;4965;43.238;27.864;2022-10-22T01:20:56;101178.72;;;7.81;100.00
9853;BME280;4965;43.238;27.864;2022-10-22T01:23:51;101175.94;;;7.68;100.00
9853;BME280;4965;43.238;27.864;2022-10-22T01:26:49;101168.91;;;7.69;100.00
9853;BME280;4965;43.238;27.864;2022-10-22T01:29:24;101126.94;;;7.36;100.00
9853;BME280;4965;43.238;27.864;2022-10-22T01:31:57;101166.63;;;7.63;100.00
9853;BME280;4965;43.238;27.864;2022-10-22T01:34:26;101166.63;;;7.63;100.00
9853;BME280;4965;43.238;27.864;2022-10-22T01:36:54;101140.16;;;7.50;100.00
9853;BME280;4965;43.238;27.864;2022-10-22T01:39:23;101160.34;;;7.50;100.00
9853;BME280;4965;43.238;27.864;2022-10-22T01:41:53;101081.41;;;6.89;100.00
9853;BME280;4965;43.238;27.864;2022-10-22T01:44:29;101159.09;;;7.41;100.00
9853;BME280;4965;43.238;27.864;2022-10-22T01:47:03;101142.72;;;7.36;100.00
9853;BME280;4965;43.238;27.864;2022-10-22T01:52:35;101138.38;;;7.51;100.00
9853;BME280;4965;43.238;27.864;2022-10-22T01:55:13;101126.75;;;7.55;100.00
9853;BME280;4965;43.238;27.864;2022-10-22T01:57:51;101152.44;;;7.65;100.00
9853;BME280;4965;43.238;27.864;2022-10-22T02:00:22;101155.63;;;7.56;100.00
9853;BME280;4965;43.238;27.864;2022-10-22T02:02:54;101120.66;;;7.39;100.00
9853;BME280;4965;43.238;27.864;2022-10-22T02:05:28;101158.56;;;7.66;100.00
9853;BME280;4965;43.238;27.864;2022-10-22T02:08:02;101157.81;;;7.64;100.00
9853;BME280;4965;43.238;27.864;2022-10-22T02:10:32;101160.19;;;7.53;100.00
9853;BME280;4965;43.238;27.864;2022-10-22T02:13:00;101168.34;;;7.64;100.00
9853;BME280;4965;43.238;27.864;2022-10-22T02:15:30;101162.41;;;7.60;100.00
9853;BME280;4965;43.238;27.864;2022-10-22T02:17:59;101167.72;;;7.59;100.00
9853;BME280;4965;43.238;27.864;2022-10-22T02:20:29;101168.41;;;7.47;100.00
9853;BME280;4965;43.238;27.864;2022-10-22T02:22:58;101157.47;;;7.39;100.00
9853;BME280;4965;43.238;27.864;2022-10-22T02:25:30;101147.06;;;7.37;100.00
9853;BME280;4965;43.238;27.864;2022-10-22T02:28:01;101150.25;;;7.42;100.00
9853;BME280;4965;43.238;27.864;2022-10-22T02:30:35;101174.28;;;7.52;100.00
9853;BME280;4965;43.238;27.864;2022-10-22T02:33:08;101156.72;;;7.37;100.00
9853;BME280;4965;43.238;27.864;2022-10-22T02:35:39;101164.50;;;7.54;100.00
9853;BME280;4965;43.238;27.864;2022-10-22T02:38:07;101165.03;;;7.45;100.00
9853;BME280;4965;43.238;27.864;2022-10-22T02:40:36;101141.09;;;7.34;100.00
9853;BME280;4965;43.238;27.864;2022-10-22T02:43:03;101153.25;;;7.36;100.00
9853;BME280;4965;43.238;27.864;2022-10-22T02:45:32;101152.97;;;7.56;100.00
9853;BME280;4965;43.238;27.864;2022-10-22T02:48:00;101160.47;;;7.48;100.00
9853;BME280;4965;43.238;27.864;2022-10-22T02:50:27;101160.09;;;7.54;100.00
9853;BME280;4965;43.238;27.864;2022-10-22T02:52:54;101153.91;;;7.55;100.00
9853;BME280;4965;43.238;27.864;2022-10-22T02:55:21;101156.97;;;7.63;100.00
9853;BME280;4965;43.238;27.864;2022-10-22T02:57:49;101161.44;;;7.61;100.00
9853;BME280;4965;43.238;27.864;2022-10-22T03:00:16;101115.81;;;7.47;100.00
9853;BME280;4965;43.238;27.864;2022-10-22T03:02:45;101158.72;;;7.63;100.00
9853;BME280;4965;43.238;27.864;2022-10-22T03:05:11;101157.63;;;7.67;100.00
9853;BME280;4965;43.238;27.864;2022-10-22T03:07:38;101156.34;;;7.74;100.00
9853;BME280;4965;43.238;27.864;2022-10-22T03:10:06;101157.09;;;7.76;100.00
9853;BME280;4965;43.238;27.864;2022-10-22T03:12:33;101154.75;;;7.72;100.00
9853;BME280;4965;43.238;27.864;2022-10-22T03:15:00;101152.97;;;7.72;100.00
9853;BME280;4965;43.238;27.864;2022-10-22T03:17:27;101153.25;;;7.82;100.00
9853;BME280;4965;43.238;27.864;2022-10-22T03:19:55;101156.06;;;7.79;100.00
9853;BME280;4965;43.238;27.864;2022-10-22T03:22:25;101153.03;;;7.71;100.00
9853;BME280;4965;43.238;27.864;2022-10-22T03:24:54;101145.88;;;7.73;100.00
9853;BME280;4965;43.238;27.864;2022-10-22T03:27:23;101148.63;;;7.71;100.00
9853;BME280;4965;43.238;27.864;2022-10-22T03:29:52;101134.44;;;7.74;100.00
9853;BME280;4965;43.238;27.864;2022-10-22T03:32:19;101118.16;;;7.67;100.00
9853;BME280;4965;43.238;27.864;2022-10-22T03:34:46;101132.38;;;7.79;100.00
9853;BME280;4965;43.238;27.864;2022-10-22T03:37:15;101123.47;;;7.81;100.00
9853;BME280;4965;43.238;27.864;2022-10-22T03:39:42;101124.78;;;7.88;100.00
9853;BME280;4965;43.238;27.864;2022-10-22T03:42:09;101128.78;;;7.95;100.00
9853;BME280;4965;43.238;27.864;2022-10-22T03:44:38;101127.09;;;7.94;100.00
9853;BME280;4965;43.238;27.864;2022-10-22T03:47:05;101130.56;;;7.95;100.00
9853;BME280;4965;43.238;27.864;2022-10-22T03:49:32;101138.94;;;8.01;100.00
9853;BME280;4965;43.238;27.864;2022-10-22T03:52:04;101132.34;;;7.94;100.00
9853;BME280;4965;43.238;27.864;2022-10-22T03:54:32;101133.69;;;8.01;100.00
9853;BME280;4965;43.238;27.864;2022-10-22T03:56:59;101123.66;;;7.78;100.00
9853;BME280;4965;43.238;27.864;2022-10-22T03:59:26;101131.09;;;7.86;100.00
9853;BME280;4965;43.238;27.864;2022-10-22T04:01:53;101101.16;;;7.73;100.00
9853;BME280;4965;43.238;27.864;2022-10-22T04:04:20;101127.94;;;7.95;100.00
9853;BME280;4965;43.238;27.864;2022-10-22T04:06:47;101079.28;;;7.72;100.00
9853;BME280;4965;43.238;27.864;2022-10-22T04:09:14;101125.19;;;7.96;100.00
9853;BME280;4965;43.238;27.864;2022-10-22T04:11:42;101098.84;;;7.82;100.00
9853;BME280;4965;43.238;27.864;2022-10-22T04:14:09;101086.47;;;7.68;100.00
9853;BME280;4965;43.238;27.864;2022-10-22T04:16:38;101119.63;;;7.87;100.00
9853;BME280;4965;43.238;27.864;2022-10-22T04:19:05;101099.38;;;7.73;100.00
9853;BME280;4965;43.238;27.864;2022-10-22T04:21:33;101130.47;;;7.96;100.00
9853;BME280;4965;43.238;27.864;2022-10-22T04:24:00;101085.38;;;7.73;100.00
9853;BME280;4965;43.238;27.864;2022-10-22T04:26:27;101116.63;;;7.93;100.00
9853;BME280;4965;43.238;27.864;2022-10-22T04:28:56;101108.00;;;7.91;100.00
9853;BME280;4965;43.238;27.864;2022-10-22T04:31:23;101119.06;;;7.96;100.00
9853;BME280;4965;43.238;27.864;2022-10-22T04:33:52;101113.16;;;7.92;100.00
9853;BME280;4965;43.238;27.864;2022-10-22T04:36:20;101116.00;;;7.74;100.00
9853;BME280;4965;43.238;27.864;2022-10-22T04:38:51;101117.19;;;7.84;100.00
9853;BME280;4965;43.238;27.864;2022-10-22T04:41:22;101119.44;;;7.90;100.00
9853;BME280;4965;43.238;27.864;2022-10-22T04:43:49;101102.88;;;7.88;100.00
9853;BME280;4965;43.238;27.864;2022-10-22T04:46:18;101101.81;;;8.20;100.00
9853;BME280;4965;43.238;27.864;2022-10-22T04:48:45;101086.25;;;8.31;100.00
9853;BME280;4965;43.238;27.864;2022-10-22T04:51:15;101094.50;;;8.82;100.00
9853;BME280;4965;43.238;27.864;2022-10-22T04:53:43;101091.72;;;9.12;100.00
9853;BME280;4965;43.238;27.864;2022-10-22T04:56:12;101100.69;;;9.36;100.00
9853;BME280;4965;43.238;27.864;2022-10-22T04:58:41;101102.28;;;9.38;100.00
9853;BME280;4965;43.238;27.864;2022-10-22T05:01:10;101104.03;;;9.52;100.00
9853;BME280;4965;43.238;27.864;2022-10-22T05:03:38;101076.53;;;9.69;100.00
9853;BME280;4965;43.238;27.864;2022-10-22T05:06:05;101111.50;;;10.37;100.00
9853;BME280;4965;43.238;27.864;2022-10-22T05:08:33;101101.34;;;10.56;100.00
9853;BME280;4965;43.238;27.864;2022-10-22T05:11:00;101056.94;;;10.48;100.00
9853;BME280;4965;43.238;27.864;2022-10-22T05:13:26;101099.56;;;10.93;100.00
9853;BME280;4965;43.238;27.864;2022-10-22T05:15:53;101078.69;;;10.77;100.00
9853;BME280;4965;43.238;27.864;2022-10-22T05:18:20;101086.25;;;10.94;100.00
9853;BME280;4965;43.238;27.864;2022-10-22T05:20:48;101085.59;;;11.04;100.00
9853;BME280;4965;43.238;27.864;2022-10-22T05:23:15;101071.81;;;11.11;100.00
9853;BME280;4965;43.238;27.864;2022-10-22T05:25:42;101105.16;;;11.37;100.00
9853;BME280;4965;43.238;27.864;2022-10-22T05:28:09;101104.72;;;11.55;100.00
9853;BME280;4965;43.238;27.864;2022-10-22T05:30:36;101112.34;;;11.83;100.00
9853;BME280;4965;43.238;27.864;2022-10-22T05:33:03;101116.50;;;11.98;100.00
9853;BME280;4965;43.238;27.864;2022-10-22T05:35:30;101117.78;;;12.27;100.00
9853;BME280;4965;43.238;27.864;2022-10-22T05:37:58;101116.66;;;12.08;100.00
9853;BME280;4965;43.238;27.864;2022-10-22T05:40:25;101092.81;;;11.73;100.00
9853;BME280;4965;43.238;27.864;2022-10-22T05:42:52;101116.38;;;11.88;100.00
9853;BME280;4965;43.238;27.864;2022-10-22T05:45:19;101117.69;;;11.94;100.00
9853;BME280;4965;43.238;27.864;2022-10-22T05:47:46;101100.34;;;12.01;100.00
9853;BME280;4965;43.238;27.864;2022-10-22T05:50:13;101108.25;;;12.25;100.00
9853;BME280;4965;43.238;27.864;2022-10-22T05:52:39;101104.91;;;12.34;100.00
9853;BME280;4965;43.238;27.864;2022-10-22T05:55:08;101111.00;;;12.12;100.00
9853;BME280;4965;43.238;27.864;2022-10-22T05:57:35;101109.28;;;12.00;100.00
9853;BME280;4965;43.238;27.864;2022-10-22T06:00:02;101098.66;;;11.89;100.00
9853;BME280;4965;43.238;27.864;2022-10-22T06:02:29;101085.88;;;11.83;100.00
9853;BME280;4965;43.238;27.864;2022-10-22T06:04:56;101091.19;;;11.70;100.00
9853;BME280;4965;43.238;27.864;2022-10-22T06:07:23;101094.53;;;11.74;100.00
9853;BME280;4965;43.238;27.864;2022-10-22T06:09:50;101087.94;;;11.67;100.00
9853;BME280;4965;43.238;27.864;2022-10-22T06:12:19;101090.44;;;11.81;100.00
9853;BME280;4965;43.238;27.864;2022-10-22T06:14:46;101090.22;;;11.84;100.00
9853;BME280;4965;43.238;27.864;2022-10-22T06:17:13;101064.91;;;11.80;100.00
9853;BME280;4965;43.238;27.864;2022-10-22T06:19:41;101068.53;;;11.90;100.00
9853;BME280;4965;43.238;27.864;2022-10-22T06:22:08;101044.81;;;11.77;100.00
9853;BME280;4965;43.238;27.864;2022-10-22T06:24:34;101079.69;;;12.17;100.00
9853;BME280;4965;43.238;27.864;2022-10-22T06:27:01;101108.06;;;12.50;100.00
9853;BME280;4965;43.238;27.864;2022-10-22T06:29:30;101090.34;;;12.51;100.00
9853;BME280;4965;43.238;27.864;2022-10-22T06:31:56;101093.69;;;12.64;100.00
9853;BME280;4965;43.238;27.864;2022-10-22T06:34:26;101094.91;;;12.60;100.00
9853;BME280;4965;43.238;27.864;2022-10-22T06:36:53;101086.84;;;12.61;100.00
9853;BME280;4965;43.238;27.864;2022-10-22T06:39:20;101079.84;;;12.49;100.00
9853;BME280;4965;43.238;27.864;2022-10-22T06:41:47;101098.03;;;12.65;100.00
9853;BME280;4965;43.238;27.864;2022-10-22T06:44:15;101091.41;;;12.81;100.00
9853;BME280;4965;43.238;27.864;2022-10-22T06:46:44;101103.84;;;12.81;100.00
9853;BME280;4965;43.238;27.864;2022-10-22T06:49:12;101094.16;;;13.02;100.00
9853;BME280;4965;43.238;27.864;2022-10-22T06:51:40;101065.81;;;12.92;100.00
9853;BME280;4965;43.238;27.864;2022-10-22T06:54:07;101095.34;;;13.09;100.00
9853;BME280;4965;43.238;27.864;2022-10-22T06:56:34;101087.38;;;12.98;100.00
9853;BME280;4965;43.238;27.864;2022-10-22T06:59:02;101081.34;;;13.07;100.00
9853;BME280;4965;43.238;27.864;2022-10-22T07:01:30;101081.59;;;13.26;100.00
9853;BME280;4965;43.238;27.864;2022-10-22T07:03:59;101071.56;;;13.30;100.00
9853;BME280;4965;43.238;27.864;2022-10-22T07:06:27;101062.22;;;13.47;100.00
9853;BME280;4965;43.238;27.864;2022-10-22T07:08:55;101063.97;;;13.57;100.00
9853;BME280;4965;43.238;27.864;2022-10-22T07:11:24;101070.28;;;13.77;100.00
9853;BME280;4965;43.238;27.864;2022-10-22T07:13:52;101065.66;;;13.79;100.00
9853;BME280;4965;43.238;27.864;2022-10-22T07:16:20;101070.97;;;13.79;100.00
9853;BME280;4965;43.238;27.864;2022-10-22T07:18:47;101066.78;;;13.97;100.00
9853;BME280;4965;43.238;27.864;2022-10-22T07:21:17;101067.09;;;14.24;100.00
9853;BME280;4965;43.238;27.864;2022-10-22T07:23:44;101040.91;;;13.99;100.00
9853;BME280;4965;43.238;27.864;2022-10-22T07:26:12;101066.38;;;14.43;100.00
9853;BME280;4965;43.238;27.864;2022-10-22T07:28:40;101049.44;;;14.23;100.00
9853;BME280;4965;43.238;27.864;2022-10-22T07:31:14;101056.50;;;14.13;100.00
9853;BME280;4965;43.238;27.864;2022-10-22T07:33:41;101062.16;;;14.20;100.00
9853;BME280;4965;43.238;27.864;2022-10-22T07:36:11;101057.16;;;14.26;100.00
9853;BME280;4965;43.238;27.864;2022-10-22T07:38:43;101058.66;;;14.70;100.00
9853;BME280;4965;43.238;27.864;2022-10-22T07:41:10;101058.56;;;14.91;100.00
9853;BME280;4965;43.238;27.864;2022-10-22T07:43:37;101018.28;;;14.65;100.00
9853;BME280;4965;43.238;27.864;2022-10-22T07:46:05;101056.59;;;14.44;100.00
9853;BME280;4965;43.238;27.864;2022-10-22T07:48:33;101050.88;;;14.58;100.00
9853;BME280;4965;43.238;27.864;2022-10-22T07:51:00;101050.41;;;14.83;100.00
9853;BME280;4965;43.238;27.864;2022-10-22T07:53:27;101053.59;;;15.36;100.00
9853;BME280;4965;43.238;27.864;2022-10-22T07:55:55;101052.31;;;15.21;100.00
9853;BME280;4965;43.238;27.864;2022-10-22T07:58:23;101049.78;;;15.19;100.00
9853;BME280;4965;43.238;27.864;2022-10-22T08:00:50;101028.31;;;14.92;100.00
9853;BME280;4965;43.238;27.864;2022-10-22T08:03:17;101052.97;;;14.94;100.00
9853;BME280;4965;43.238;27.864;2022-10-22T08:05:44;101045.13;;;14.93;100.00
9853;BME280;4965;43.238;27.864;2022-10-22T08:08:13;101043.75;;;14.98;100.00
9853;BME280;4965;43.238;27.864;2022-10-22T08:10:40;101032.28;;;15.17;100.00
9853;BME280;4965;43.238;27.864;2022-10-22T08:13:08;101041.50;;;15.03;100.00
9853;BME280;4965;43.238;27.864;2022-10-22T08:15:35;101038.91;;;15.51;100.00
9853;BME280;4965;43.238;27.864;2022-10-22T08:18:03;101043.94;;;15.64;99.31
9853;BME280;4965;43.238;27.864;2022-10-22T08:20:30;101043.25;;;15.71;98.58
9853;BME280;4965;43.238;27.864;2022-10-22T08:22:56;101039.84;;;15.98;97.19
9853;BME280;4965;43.238;27.864;2022-10-22T08:25:24;101028.03;;;16.01;96.30
9853;BME280;4965;43.238;27.864;2022-10-22T08:27:50;101032.38;;;16.02;94.80
9853;BME280;4965;43.238;27.864;2022-10-22T08:30:19;101024.69;;;15.80;96.85
9853;BME280;4965;43.238;27.864;2022-10-22T08:32:46;101011.38;;;15.89;94.41
9853;BME280;4965;43.238;27.864;2022-10-22T08:35:12;101024.22;;;16.13;92.80
9853;BME280;4965;43.238;27.864;2022-10-22T08:37:41;101014.81;;;16.09;93.23
9853;BME280;4965;43.238;27.864;2022-10-22T08:40:14;100997.00;;;16.09;92.61
9853;BME280;4965;43.238;27.864;2022-10-22T08:43:11;101014.06;;;16.53;91.12
9853;BME280;4965;43.238;27.864;2022-10-22T08:45:49;101009.19;;;16.76;89.39
9853;BME280;4965;43.238;27.864;2022-10-22T08:48:32;100961.00;;;16.60;86.54
9853;BME280;4965;43.238;27.864;2022-10-22T08:51:02;101007.97;;;16.98;85.93
9853;BME280;4965;43.238;27.864;2022-10-22T08:53:33;100997.94;;;16.82;86.62
9853;BME280;4965;43.238;27.864;2022-10-22T08:56:02;100985.53;;;17.08;85.31
9853;BME280;4965;43.238;27.864;2022-10-22T08:58:34;100993.91;;;16.96;83.07
9853;BME280;4965;43.238;27.864;2022-10-22T09:01:08;101000.03;;;17.24;82.35
9853;BME280;4965;43.238;27.864;2022-10-22T09:03:44;100994.44;;;16.99;82.49
9853;BME280;4965;43.238;27.864;2022-10-22T09:06:15;100950.47;;;16.76;82.81
9853;BME280;4965;43.238;27.864;2022-10-22T09:08:45;100981.84;;;17.27;82.59
9853;BME280;4965;43.238;27.864;2022-10-22T09:11:23;100981.09;;;17.35;80.13
9853;BME280;4965;43.238;27.864;2022-10-22T09:13:52;100981.47;;;17.57;81.13
9853;BME280;4965;43.238;27.864;2022-10-22T09:16:25;100979.31;;;17.43;80.70
9853;BME280;4965;43.238;27.864;2022-10-22T09:19:04;100988.22;;;17.87;77.48
9853;BME280;4965;43.238;27.864;2022-10-22T09:21:39;100974.69;;;18.23;74.84
9853;BME280;4965;43.238;27.864;2022-10-22T09:24:11;100974.63;;;18.06;73.96
9853;BME280;4965;43.238;27.864;2022-10-22T09:26:40;100973.41;;;18.61;72.66
9853;BME280;4965;43.238;27.864;2022-10-22T09:29:13;100965.81;;;19.22;72.44
9853;BME280;4965;43.238;27.864;2022-10-22T09:31:44;100963.31;;;19.37;67.75
9853;BME280;4965;43.238;27.864;2022-10-22T09:34:13;100957.25;;;19.02;69.00
9853;BME280;4965;43.238;27.864;2022-10-22T09:36:40;100941.84;;;19.13;68.63
9853;BME280;4965;43.238;27.864;2022-10-22T09:39:21;100952.81;;;18.61;70.70
9853;BME280;4965;43.238;27.864;2022-10-22T09:41:49;100936.47;;;18.80;71.97
9853;BME280;4965;43.238;27.864;2022-10-22T09:44:16;100943.38;;;19.56;70.33
9853;BME280;4965;43.238;27.864;2022-10-22T09:46:45;100920.38;;;19.77;65.97
9853;BME280;4965;43.238;27.864;2022-10-22T09:49:14;100954.38;;;19.04;68.25
9853;BME280;4965;43.238;27.864;2022-10-22T09:51:53;100953.25;;;18.48;70.88
9853;BME280;4965;43.238;27.864;2022-10-22T09:54:22;100946.41;;;18.54;70.41
9853;BME280;4965;43.238;27.864;2022-10-22T09:56:57;100940.31;;;18.02;72.53
9853;BME280;4965;43.238;27.864;2022-10-22T09:59:30;100926.72;;;18.29;72.45
9853;BME280;4965;43.238;27.864;2022-10-22T10:02:05;100887.44;;;17.96;72.79
9853;BME280;4965;43.238;27.864;2022-10-22T10:04:39;100919.19;;;18.25;72.63
9853;BME280;4965;43.238;27.864;2022-10-22T10:07:16;100920.25;;;18.40;73.06
9853;BME280;4965;43.238;27.864;2022-10-22T10:09:43;100916.38;;;18.42;72.19
9853;BME280;4965;43.238;27.864;2022-10-22T10:12:21;100921.44;;;18.45;71.92
9853;BME280;4965;43.238;27.864;2022-10-22T10:14:59;100929.53;;;18.62;71.37
9853;BME280;4965;43.238;27.864;2022-10-22T10:17:35;100920.94;;;19.48;70.43
9853;BME280;4965;43.238;27.864;2022-10-22T10:20:20;100932.84;;;20.17;65.76
9853;BME280;4965;43.238;27.864;2022-10-22T10:22:55;100902.50;;;19.13;67.44
9853;BME280;4965;43.238;27.864;2022-10-22T10:25:47;100915.19;;;18.79;69.09
9853;BME280;4965;43.238;27.864;2022-10-22T10:28:30;100919.53;;;18.72;69.04
9853;BME280;4965;43.238;27.864;2022-10-22T10:31:05;100913.19;;;18.89;69.53
9853;BME280;4965;43.238;27.864;2022-10-22T10:33:46;100897.09;;;18.81;69.27
9853;BME280;4965;43.238;27.864;2022-10-22T10:36:25;100895.75;;;18.85;68.78
9853;BME280;4965;43.238;27.864;2022-10-22T10:39:02;100895.81;;;18.43;70.23
9853;BME280;4965;43.238;27.864;2022-10-22T10:41:40;100894.78;;;18.94;69.72
9853;BME280;4965;43.238;27.864;2022-10-22T10:44:35;100884.84;;;19.75;66.77
9853;BME280;4965;43.238;27.864;2022-10-22T10:47:15;100830.78;;;19.23;66.55
9853;BME280;4965;43.238;27.864;2022-10-22T10:49:51;100868.81;;;19.02;68.62
9853;BME280;4965;43.238;27.864;2022-10-22T10:52:27;100850.91;;;18.87;68.45
9853;BME280;4965;43.238;27.864;2022-10-22T10:55:08;100853.59;;;18.79;68.27
9853;BME280;4965;43.238;27.864;2022-10-22T10:57:45;100847.38;;;18.78;68.78
9853;BME280;4965;43.238;27.864;2022-10-22T11:00:17;100836.97;;;19.16;68.47
9853;BME280;4965;43.238;27.864;2022-10-22T11:03:33;100839.84;;;18.66;69.41
9853;BME280;4965;43.238;27.864;2022-10-22T11:06:09;100839.00;;;18.81;69.45
9853;BME280;4965;43.238;27.864;2022-10-22T11:08:39;100830.81;;;18.99;69.11
9853;BME280;4965;43.238;27.864;2022-10-22T11:11:13;100810.22;;;18.91;67.77
9853;BME280;4965;43.238;27.864;2022-10-22T11:13:46;100793.16;;;18.76;67.30
9853;BME280;4965;43.238;27.864;2022-10-22T11:16:19;100831.31;;;18.94;67.54
9853;BME280;4965;43.238;27.864;2022-10-22T11:18:51;100816.72;;;19.29;67.58
9853;BME280;4965;43.238;27.864;2022-10-22T11:21:25;100784.03;;;19.34;65.14
9853;BME280;4965;43.238;27.864;2022-10-22T11:23:55;100793.59;;;19.12;65.58
9853;BME280;4965;43.238;27.864;2022-10-22T11:26:34;100796.22;;;19.53;65.11
9853;BME280;4965;43.238;27.864;2022-10-22T11:29:06;100789.41;;;19.26;65.72
9853;BME280;4965;43.238;27.864;2022-10-22T11:31:37;100765.16;;;19.03;65.76
9853;BME280;4965;43.238;27.864;2022-10-22T11:34:08;100801.81;;;19.27;74.14
9853;BME280;4965;43.238;27.864;2022-10-22T11:36:40;100789.56;;;19.87;85.26
9853;BME280;4965;43.238;27.864;2022-10-22T11:39:27;100774.69;;;20.08;91.97
9853;BME280;4965;43.238;27.864;2022-10-22T11:41:57;100745.41;;;19.59;96.51
9853;BME280;4965;43.238;27.864;2022-10-22T11:44:24;100755.53;;;19.33;100.00
9853;BME280;4965;43.238;27.864;2022-10-22T11:46:56;100730.88;;;18.82;100.00
9853;BME280;4965;43.238;27.864;2022-10-22T11:49:25;100770.06;;;19.55;100.00
9853;BME280;4965;43.238;27.864;2022-10-22T11:52:21;100770.22;;;19.61;100.00
9853;BME280;4965;43.238;27.864;2022-10-22T11:54:54;100764.84;;;18.82;100.00
9853;BME280;4965;43.238;27.864;2022-10-22T11:57:26;100741.78;;;18.57;100.00
9853;BME280;4965;43.238;27.864;2022-10-22T11:59:56;100747.75;;;18.34;100.00
9853;BME280;4965;43.238;27.864;2022-10-22T12:02:38;100766.97;;;18.22;100.00
9853;BME280;4965;43.238;27.864;2022-10-22T12:08:24;100755.25;;;18.31;100.00
9853;BME280;4965;43.238;27.864;2022-10-22T12:10:59;100769.06;;;18.60;100.00
9853;BME280;4965;43.238;27.864;2022-10-22T12:13:29;100766.38;;;18.60;100.00
9853;BME280;4965;43.238;27.864;2022-10-22T12:15:57;100755.47;;;18.86;100.00
9853;BME280;4965;43.238;27.864;2022-10-22T12:18:27;100751.78;;;19.03;100.00
9853;BME280;4965;43.238;27.864;2022-10-22T12:20:57;100750.44;;;18.99;100.00
9853;BME280;4965;43.238;27.864;2022-10-22T12:23:29;100745.31;;;19.28;100.00
9853;BME280;4965;43.238;27.864;2022-10-22T12:25:57;100749.22;;;19.18;100.00
9853;BME280;4965;43.238;27.864;2022-10-22T12:28:24;100747.53;;;19.17;100.00
9853;BME280;4965;43.238;27.864;2022-10-22T12:30:51;100732.41;;;18.61;100.00
9853;BME280;4965;43.238;27.864;2022-10-22T12:33:20;100739.41;;;18.78;100.00
9853;BME280;4965;43.238;27.864;2022-10-22T12:35:48;100728.53;;;18.87;100.00
9853;BME280;4965;43.238;27.864;2022-10-22T12:38:21;100738.25;;;18.64;100.00
9853;BME280;4965;43.238;27.864;2022-10-22T12:40:54;100730.22;;;18.56;100.00
9853;BME280;4965;43.238;27.864;2022-10-22T12:43:24;100728.34;;;18.32;100.00
9853;BME280;4965;43.238;27.864;2022-10-22T12:45:51;100732.22;;;18.38;100.00
9853;BME280;4965;43.238;27.864;2022-10-22T12:48:21;100728.34;;;18.24;100.00
9853;BME280;4965;43.238;27.864;2022-10-22T12:50:51;100730.34;;;18.38;100.00
9853;BME280;4965;43.238;27.864;2022-10-22T12:53:21;100730.56;;;18.53;100.00
9853;BME280;4965;43.238;27.864;2022-10-22T12:55:53;100732.22;;;18.38;100.00
9853;BME280;4965;43.238;27.864;2022-10-22T12:58:27;100697.22;;;18.23;100.00
9853;BME280;4965;43.238;27.864;2022-10-22T13:00:55;100729.66;;;18.20;100.00
9853;BME280;4965;43.238;27.864;2022-10-22T13:03:29;100729.19;;;18.33;100.00
9853;BME280;4965;43.238;27.864;2022-10-22T13:05:56;100724.47;;;18.27;100.00
9853;BME280;4965;43.238;27.864;2022-10-22T13:08:26;100717.59;;;18.00;100.00
9853;BME280;4965;43.238;27.864;2022-10-22T13:10:55;100721.63;;;18.12;100.00
9853;BME280;4965;43.238;27.864;2022-10-22T13:13:40;100707.38;;;17.79;100.00
9853;BME280;4965;43.238;27.864;2022-10-22T13:16:15;100704.50;;;17.81;100.00
9853;BME280;4965;43.238;27.864;2022-10-22T13:18:42;100710.38;;;17.84;100.00
9853;BME280;4965;43.238;27.864;2022-10-22T13:21:24;100711.69;;;17.64;100.00